createdAt,value
2022-11-23T00:00:23.824Z,0.49
2022-11-23T00:03:20.323Z,0.49
2022-11-23T00:05:56.249Z,0.51
2022-11-23T00:08:32.412Z,0.54
2022-11-23T00:11:09.051Z,0.57
2022-11-23T00:13:46.365Z,0.60
2022-11-23T00:16:26.307Z,0.61
2022-11-23T00:19:04.097Z,0.65
2022-11-23T00:21:40.172Z,0.69
2022-11-23T00:24:18.388Z,0.74
2022-11-23T00:26:54.560Z,0.75
2022-11-23T00:29:30.658Z,0.76
2022-11-23T00:32:07.478Z,0.77
2022-11-23T00:34:46.482Z,0.79
2022-11-23T00:37:22.308Z,0.79
2022-11-23T00:39:58.228Z,0.78
2022-11-23T00:42:38.111Z,0.72
2022-11-23T00:45:15.747Z,0.68
2022-11-23T00:47:51.815Z,0.66
2022-11-23T00:50:27.644Z,0.65
2022-11-23T00:53:03.553Z,0.63
2022-11-23T00:55:39.449Z,0.64
2022-11-23T00:58:17.222Z,0.65
2022-11-23T01:01:02.787Z,0.66
2022-11-23T01:03:40.963Z,0.67
2022-11-23T01:06:20.461Z,0.69
2022-11-23T01:08:59.107Z,0.72
2022-11-23T01:11:36.699Z,0.77
2022-11-23T01:14:13.133Z,0.83
2022-11-23T01:16:49.477Z,0.88
2022-11-23T01:19:25.805Z,0.93
2022-11-23T01:22:01.692Z,0.97
2022-11-23T01:24:37.825Z,1.01
2022-11-23T01:27:17.260Z,1.06
2022-11-23T01:29:53.052Z,1.11
2022-11-23T01:32:29.030Z,1.15
2022-11-23T01:35:06.961Z,1.22
2022-11-23T01:37:42.835Z,1.26
2022-11-23T01:40:20.028Z,1.32
2022-11-23T01:43:02.330Z,1.38
2022-11-23T01:45:46.496Z,1.48
2022-11-23T01:48:27.268Z,1.54
2022-11-23T01:51:07.375Z,1.54
2022-11-23T01:53:46.156Z,1.54
2022-11-23T01:56:30.646Z,1.55
2022-11-23T01:59:15.364Z,1.56
2022-11-23T02:01:51.760Z,1.59
2022-11-23T02:04:34.123Z,1.63
2022-11-23T02:07:11.881Z,1.67
2022-11-23T02:09:50.134Z,1.70
2022-11-23T02:12:25.968Z,1.72
2022-11-23T02:15:01.791Z,1.71
2022-11-23T02:17:38.791Z,1.72
2022-11-23T02:20:19.699Z,1.73
2022-11-23T02:23:17.701Z,1.75
2022-11-23T02:26:10.793Z,1.77
2022-11-23T02:28:54.995Z,1.77
2022-11-23T02:31:31.892Z,1.78
2022-11-23T02:34:07.839Z,1.78
2022-11-23T02:36:50.334Z,1.80
2022-11-23T02:39:35.710Z,1.81
2022-11-23T02:42:12.131Z,1.81
2022-11-23T02:45:00.041Z,1.83
2022-11-23T02:47:35.911Z,1.82
2022-11-23T02:53:06.939Z,1.84
2022-11-23T02:55:43.411Z,1.83
2022-11-23T02:58:19.325Z,1.82
2022-11-23T03:00:55.752Z,1.81
2022-11-23T03:03:32.060Z,1.77
2022-11-23T03:06:08.384Z,1.77
2022-11-23T03:08:44.911Z,1.76
2022-11-23T03:11:21.922Z,1.78
2022-11-23T03:13:57.863Z,1.77
2022-11-23T03:16:34.437Z,1.77
2022-11-23T03:19:10.600Z,1.76
2022-11-23T03:21:46.730Z,1.76
2022-11-23T03:24:22.883Z,1.76
2022-11-23T03:27:00.276Z,1.76
2022-11-23T03:29:36.188Z,1.74
2022-11-23T03:32:17.006Z,1.72
2022-11-23T03:34:54.734Z,1.70
2022-11-23T03:37:31.034Z,1.70
2022-11-23T03:40:08.875Z,1.69
2022-11-23T03:43:03.879Z,1.69
2022-11-23T03:45:41.027Z,1.69
2022-11-23T03:48:17.294Z,1.71
2022-11-23T03:50:54.211Z,1.70
2022-11-23T03:53:30.321Z,1.68
2022-11-23T03:56:08.783Z,1.65
2022-11-23T03:58:48.298Z,1.65
2022-11-23T04:01:24.358Z,1.64
2022-11-23T04:04:06.040Z,1.64
2022-11-23T04:06:56.236Z,1.63
2022-11-23T04:09:43.770Z,1.57
2022-11-23T04:12:32.605Z,1.50
2022-11-23T04:15:10.749Z,1.45
2022-11-23T04:17:47.231Z,1.45
2022-11-23T04:20:23.629Z,1.42
2022-11-23T04:22:59.745Z,1.38
2022-11-23T04:25:36.258Z,1.39
2022-11-23T04:28:12.624Z,1.41
2022-11-23T04:30:48.700Z,1.41
2022-11-23T04:33:24.688Z,1.35
2022-11-23T04:36:01.495Z,1.30
2022-11-23T04:38:37.488Z,1.28
2022-11-23T04:41:14.634Z,1.25
2022-11-23T04:43:51.897Z,1.23
2022-11-23T04:46:28.125Z,1.22
2022-11-23T04:49:03.855Z,1.18
2022-11-23T04:51:39.899Z,1.15
2022-11-23T04:54:17.063Z,1.10
2022-11-23T04:56:58.121Z,1.08
2022-11-23T04:59:34.661Z,1.08
2022-11-23T05:02:11.372Z,1.06
2022-11-23T05:04:59.045Z,1.04
2022-11-23T05:07:37.760Z,0.98
2022-11-23T05:10:15.358Z,0.96
2022-11-23T05:12:51.417Z,0.94
2022-11-23T05:15:27.427Z,0.92
2022-11-23T05:18:10.632Z,0.92
2022-11-23T05:20:47.477Z,0.91
2022-11-23T05:23:23.941Z,0.91
2022-11-23T05:26:00.716Z,1.01
2022-11-23T05:28:40.615Z,0.97
2022-11-23T05:31:18.049Z,0.92
2022-11-23T05:33:55.051Z,0.86
2022-11-23T05:36:42.529Z,0.84
2022-11-23T05:39:19.024Z,0.84
2022-11-23T05:41:58.214Z,0.86
2022-11-23T05:44:45.264Z,0.86
2022-11-23T05:47:27.258Z,0.87
2022-11-23T05:50:03.525Z,0.89
2022-11-23T05:52:39.871Z,0.85
2022-11-23T05:55:16.608Z,0.82
2022-11-23T05:57:52.476Z,0.84
2022-11-23T06:00:28.753Z,0.82
2022-11-23T06:03:06.656Z,0.82
2022-11-23T06:05:43.149Z,0.77
2022-11-23T06:08:19.173Z,0.74
2022-11-23T06:10:55.679Z,0.73
2022-11-23T06:13:31.896Z,0.74
2022-11-23T06:16:09.306Z,0.77
2022-11-23T06:18:53.022Z,0.80
2022-11-23T06:21:29.014Z,0.80
2022-11-23T06:24:05.290Z,0.80
2022-11-23T06:26:42.060Z,0.83
2022-11-23T06:29:18.405Z,0.87
2022-11-23T06:31:54.971Z,0.90
2022-11-23T06:34:31.191Z,0.90
2022-11-23T06:37:07.319Z,0.91
2022-11-23T06:39:43.363Z,0.93
2022-11-23T06:45:17.766Z,0.95
2022-11-23T06:47:55.181Z,0.95
2022-11-23T06:50:31.148Z,0.97
2022-11-23T06:53:08.419Z,1.02
2022-11-23T06:55:50.227Z,1.05
2022-11-23T06:58:28.136Z,1.08
2022-11-23T07:01:09.886Z,1.12
2022-11-23T07:03:53.625Z,1.12
2022-11-23T07:06:42.526Z,1.15
2022-11-23T07:09:25.184Z,1.22
2022-11-23T07:12:10.658Z,1.24
2022-11-23T07:14:46.748Z,1.30
2022-11-23T07:17:23.112Z,1.32
2022-11-23T07:19:59.142Z,1.36
2022-11-23T07:22:35.127Z,1.38
2022-11-23T07:25:16.699Z,1.39
2022-11-23T07:27:58.045Z,1.44
2022-11-23T07:30:36.728Z,1.47
2022-11-23T07:33:15.510Z,1.47
2022-11-23T07:35:51.697Z,1.47
2022-11-23T07:38:27.756Z,1.48
2022-11-23T07:41:04.274Z,1.48
2022-11-23T07:44:30.179Z,1.52
2022-11-23T07:47:06.178Z,1.54
2022-11-23T07:49:42.163Z,1.58
2022-11-23T07:52:18.194Z,1.64
2022-11-23T07:54:54.254Z,1.69
2022-11-23T07:57:30.908Z,1.73
2022-11-23T08:00:10.229Z,1.76
2022-11-23T08:03:19.528Z,1.79
2022-11-23T08:05:46.324Z,1.79
2022-11-23T08:08:22.659Z,1.83
2022-11-23T08:10:58.850Z,1.83
2022-11-23T08:13:35.864Z,1.84
2022-11-23T08:16:12.451Z,1.87
2022-11-23T08:18:50.893Z,1.87
2022-11-23T08:21:26.911Z,1.86
2022-11-23T08:24:02.915Z,1.86
2022-11-23T08:26:39.096Z,1.86
2022-11-23T08:29:15.186Z,1.85
2022-11-23T08:31:52.101Z,1.86
2022-11-23T08:34:28.457Z,1.89
2022-11-23T08:37:04.761Z,1.90
2022-11-23T08:39:40.785Z,1.91
2022-11-23T08:42:16.988Z,1.96
2022-11-23T08:44:53.351Z,2.00
2022-11-23T08:47:29.533Z,2.04
2022-11-23T08:50:05.896Z,2.06
2022-11-23T08:52:42.039Z,2.08
2022-11-23T08:55:18.482Z,2.09
2022-11-23T08:57:57.902Z,2.11
2022-11-23T09:00:34.163Z,2.12
2022-11-23T09:03:10.142Z,2.14
2022-11-23T09:05:46.121Z,2.16
2022-11-23T09:08:22.360Z,2.16
2022-11-23T09:11:03.723Z,2.11
2022-11-23T09:13:41.534Z,2.06
2022-11-23T09:16:17.415Z,2.09
2022-11-23T09:18:58.495Z,2.09
2022-11-23T09:21:36.296Z,2.10
2022-11-23T09:24:14.710Z,2.11
2022-11-23T09:26:50.773Z,2.15
2022-11-23T09:29:26.847Z,2.17
2022-11-23T09:32:04.652Z,2.21
2022-11-23T09:34:40.685Z,2.20
2022-11-23T09:37:16.963Z,2.21
2022-11-23T09:39:52.858Z,2.23
2022-11-23T09:42:57.612Z,2.26
2022-11-23T09:45:45.952Z,2.23
2022-11-23T09:49:02.490Z,2.21
2022-11-23T09:51:41.443Z,2.20
2022-11-23T09:54:34.622Z,2.20
2022-11-23T09:57:16.361Z,2.21
2022-11-23T09:59:59.209Z,2.20
2022-11-23T10:02:40.987Z,2.21
2022-11-23T10:05:24.380Z,2.22
2022-11-23T10:08:16.649Z,2.22
2022-11-23T10:11:05.791Z,2.25
2022-11-23T10:13:57.117Z,2.22
2022-11-23T10:16:50.435Z,2.20
2022-11-23T10:19:47.908Z,2.18
2022-11-23T10:22:38.173Z,2.21
2022-11-23T10:25:22.511Z,2.23
2022-11-23T10:28:08.128Z,2.24
2022-11-23T10:30:46.734Z,2.24
2022-11-23T10:33:34.201Z,2.25
2022-11-23T10:36:14.331Z,2.28
2022-11-23T10:38:56.148Z,2.30
2022-11-23T10:41:33.837Z,2.28
2022-11-23T10:44:26.974Z,2.28
2022-11-23T10:47:03.595Z,2.28
2022-11-23T10:49:40.418Z,2.31
2022-11-23T10:52:33.963Z,2.33
2022-11-23T10:55:15.593Z,2.38
2022-11-23T10:57:51.578Z,2.40
2022-11-23T11:00:31.505Z,2.38
2022-11-23T11:03:26.549Z,2.37
2022-11-23T11:06:10.135Z,2.37
2022-11-23T11:09:02.750Z,2.36
2022-11-23T11:11:47.059Z,2.38
2022-11-23T11:14:25.227Z,2.41
2022-11-23T11:17:02.274Z,2.45
2022-11-23T11:19:39.734Z,2.50
2022-11-23T11:22:36.966Z,2.51
2022-11-23T11:25:34.832Z,2.50
2022-11-23T11:28:31.475Z,2.46
2022-11-23T11:31:28.554Z,2.48
2022-11-23T11:34:21.467Z,2.46
2022-11-23T11:37:11.117Z,2.39
2022-11-23T11:39:53.699Z,2.37
2022-11-23T11:42:38.582Z,2.40
2022-11-23T11:45:28.847Z,2.41
2022-11-23T11:48:14.991Z,2.42
2022-11-23T11:50:58.075Z,2.44
2022-11-23T11:53:42.369Z,2.44
2022-11-23T11:56:27.364Z,2.45
2022-11-23T11:59:15.425Z,2.45
2022-11-23T12:02:02.302Z,2.46
2022-11-23T12:04:50.965Z,2.47
2022-11-23T12:07:36.142Z,2.50
2022-11-23T12:10:22.262Z,2.50
2022-11-23T12:12:58.855Z,2.47
2022-11-23T12:15:49.789Z,2.49
2022-11-23T12:19:06.164Z,2.48
2022-11-23T12:22:20.816Z,2.49
2022-11-23T12:25:33.350Z,2.52
2022-11-23T12:28:43.555Z,2.53
2022-11-23T12:31:39.550Z,2.55
2022-11-23T12:34:38.638Z,2.58
2022-11-23T12:37:40.519Z,2.58
2022-11-23T12:40:38.567Z,2.55
2022-11-23T12:43:26.682Z,2.58
2022-11-23T12:46:29.063Z,2.58
2022-11-23T12:49:33.587Z,2.56
2022-11-23T12:52:39.409Z,2.56
2022-11-23T12:55:33.650Z,2.56
2022-11-23T12:58:21.746Z,2.57
2022-11-23T13:01:07.152Z,2.59
2022-11-23T13:04:41.326Z,2.60
2022-11-23T13:08:17.748Z,2.62
2022-11-23T13:11:21.396Z,2.62
2022-11-23T13:14:19.843Z,2.64
2022-11-23T13:17:33.478Z,2.64
2022-11-23T13:20:50.175Z,2.66
2022-11-23T13:23:27.025Z,2.70
2022-11-23T13:26:24.832Z,2.69
2022-11-23T13:29:01.914Z,2.70
2022-11-23T13:31:41.060Z,2.70
2022-11-23T13:34:48.854Z,2.69
2022-11-23T13:37:25.331Z,2.70
2022-11-23T13:40:26.877Z,2.70
2022-11-23T13:43:14.833Z,2.71
2022-11-23T13:46:19.656Z,2.72
2022-11-23T13:48:59.955Z,2.73
2022-11-23T13:51:38.871Z,2.73
2022-11-23T13:54:27.921Z,2.74
2022-11-23T13:57:12.698Z,2.75
2022-11-23T13:59:49.031Z,2.76
2022-11-23T14:02:33.381Z,2.78
2022-11-23T14:06:01.178Z,2.78
2022-11-23T14:08:43.469Z,2.79
2022-11-23T14:11:26.548Z,2.81
2022-11-23T14:14:15.367Z,2.85
2022-11-23T14:17:43.001Z,2.88
2022-11-23T14:20:42.492Z,2.92
2022-11-23T14:24:02.921Z,2.93
2022-11-23T14:27:04.198Z,2.94
2022-11-23T14:30:39.337Z,2.93
2022-11-23T14:33:39.324Z,2.92
2022-11-23T14:36:35.113Z,2.89
2022-11-23T14:40:18.311Z,2.87
2022-11-23T14:42:59.070Z,2.83
2022-11-23T14:45:38.113Z,2.81
2022-11-23T14:48:33.735Z,2.78
2022-11-23T14:51:19.140Z,2.74
2022-11-23T14:54:00.775Z,2.71
2022-11-23T14:56:44.086Z,2.69
2022-11-23T14:59:28.504Z,2.69
2022-11-23T15:02:16.188Z,2.68
2022-11-23T15:05:12.364Z,2.66
2022-11-23T15:08:01.320Z,2.62
2022-11-23T15:10:53.239Z,2.61
2022-11-23T15:13:33.249Z,2.58
2022-11-23T15:16:14.684Z,2.57
2022-11-23T15:18:52.031Z,2.56
2022-11-23T15:21:30.179Z,2.55
2022-11-23T15:24:06.740Z,2.54
2022-11-23T15:26:49.189Z,2.55
2022-11-23T15:29:40.404Z,2.54
2022-11-23T15:32:33.743Z,2.54
2022-11-23T15:35:16.853Z,2.54
2022-11-23T15:37:53.731Z,2.54
2022-11-23T15:40:34.541Z,2.54
2022-11-23T15:43:14.997Z,2.53
2022-11-23T15:46:12.743Z,2.53
2022-11-23T15:48:52.890Z,2.52
2022-11-23T15:51:37.476Z,2.53
2022-11-23T15:54:22.765Z,2.52
2022-11-23T15:56:59.910Z,2.51
2022-11-23T15:59:44.212Z,2.50
2022-11-23T16:02:26.695Z,2.47
2022-11-23T16:05:18.371Z,2.46
2022-11-23T16:08:01.096Z,2.43
2022-11-23T16:10:54.227Z,2.44
2022-11-23T16:13:42.497Z,2.44
2022-11-23T16:16:22.905Z,2.43
2022-11-23T16:18:59.069Z,2.45
2022-11-23T16:21:36.732Z,2.46
2022-11-23T16:24:25.243Z,2.48
2022-11-23T16:27:01.211Z,2.51
2022-11-23T16:29:42.742Z,2.53
2022-11-23T16:32:31.898Z,2.52
2022-11-23T16:35:21.635Z,2.52
2022-11-23T16:37:57.734Z,2.52
2022-11-23T16:40:33.939Z,2.52
2022-11-23T16:43:11.921Z,2.50
2022-11-23T16:45:52.092Z,2.49
2022-11-23T16:48:47.527Z,2.48
2022-11-23T16:51:23.562Z,2.46
2022-11-23T16:54:13.357Z,2.46
2022-11-23T16:56:50.916Z,2.45
2022-11-23T16:59:27.006Z,2.45
2022-11-23T17:02:03.314Z,2.47
2022-11-23T17:04:39.663Z,2.47
2022-11-23T17:07:17.048Z,2.48
2022-11-23T17:09:53.085Z,2.49
2022-11-23T17:12:28.992Z,2.51
2022-11-23T17:15:07.734Z,2.52
2022-11-23T17:17:44.229Z,2.53
2022-11-23T17:20:21.744Z,2.50
2022-11-23T17:23:00.324Z,2.49
2022-11-23T17:25:37.927Z,2.48
2022-11-23T17:28:22.231Z,2.48
2022-11-23T17:30:58.415Z,2.49
2022-11-23T17:33:34.501Z,2.50
2022-11-23T17:36:13.608Z,2.51
2022-11-23T17:38:50.189Z,2.52
2022-11-23T17:41:26.262Z,2.54
2022-11-23T17:44:02.113Z,2.53
2022-11-23T17:46:38.757Z,2.54
2022-11-23T17:49:20.071Z,2.55
2022-11-23T17:51:56.548Z,2.56
2022-11-23T17:54:32.802Z,2.58
2022-11-23T17:57:11.619Z,2.56
2022-11-23T17:59:48.194Z,2.55
2022-11-23T18:02:24.764Z,2.58
2022-11-23T18:05:01.027Z,2.59
2022-11-23T18:07:37.227Z,2.60
2022-11-23T18:10:16.730Z,2.59
2022-11-23T18:12:52.801Z,2.58
2022-11-23T18:15:30.396Z,2.57
2022-11-23T18:18:06.844Z,2.56
2022-11-23T18:20:42.828Z,2.57
2022-11-23T18:23:20.895Z,2.58
2022-11-23T18:26:07.272Z,2.59
2022-11-23T18:28:43.490Z,2.61
2022-11-23T18:31:20.628Z,2.62
2022-11-23T18:33:56.815Z,2.60
2022-11-23T18:36:33.427Z,2.58
2022-11-23T18:39:10.058Z,2.56
2022-11-23T18:41:46.995Z,2.53
2022-11-23T18:44:23.134Z,2.52
2022-11-23T18:46:59.254Z,2.51
2022-11-23T18:49:35.611Z,2.51
2022-11-23T18:52:14.025Z,2.51
2022-11-23T18:54:50.199Z,2.48
2022-11-23T18:57:27.329Z,2.47
2022-11-23T19:00:06.200Z,2.45
2022-11-23T19:02:42.728Z,2.44
2022-11-23T19:05:20.399Z,2.41
2022-11-23T19:07:57.536Z,2.39
2022-11-23T19:10:35.203Z,2.37
2022-11-23T19:13:11.307Z,2.36
2022-11-23T19:15:47.521Z,2.33
2022-11-23T19:18:23.890Z,2.32
2022-11-23T19:21:00.036Z,2.31
2022-11-23T19:23:36.397Z,2.31
2022-11-23T19:26:12.937Z,2.32
2022-11-23T19:28:49.435Z,2.33
2022-11-23T19:31:30.456Z,2.34
2022-11-23T19:34:10.876Z,2.36
2022-11-23T19:36:46.890Z,2.40
2022-11-23T19:39:22.848Z,2.39
2022-11-23T19:41:58.799Z,2.40
2022-11-23T19:44:34.904Z,2.39
2022-11-23T19:47:16.381Z,2.38
2022-11-23T19:49:57.219Z,2.37
2022-11-23T19:52:55.912Z,2.37
2022-11-23T19:55:30.172Z,2.37
2022-11-23T19:58:06.467Z,2.34
2022-11-23T20:00:45.710Z,2.33
2022-11-23T20:03:21.725Z,2.31
2022-11-23T20:06:05.803Z,2.31
2022-11-23T20:08:41.863Z,2.32
2022-11-23T20:11:19.858Z,2.34
2022-11-23T20:13:56.961Z,2.35
2022-11-23T20:16:35.070Z,2.34
2022-11-23T20:19:12.838Z,2.35
2022-11-23T20:21:48.775Z,2.37
2022-11-23T20:24:25.093Z,2.36
2022-11-23T20:27:01.198Z,2.36
2022-11-23T20:29:37.407Z,2.34
2022-11-23T20:32:14.033Z,2.33
2022-11-23T20:34:50.500Z,2.32
2022-11-23T20:37:26.599Z,2.32
2022-11-23T20:40:02.730Z,2.33
2022-11-23T20:42:38.800Z,2.31
2022-11-23T20:45:16.135Z,2.28
2022-11-23T20:47:54.927Z,2.28
2022-11-23T20:50:32.168Z,2.29
2022-11-23T20:53:08.373Z,2.26
2022-11-23T20:55:44.746Z,2.28
2022-11-23T20:58:21.728Z,2.30
2022-11-23T21:00:57.914Z,2.32
2022-11-23T21:03:35.174Z,2.33
2022-11-23T21:06:15.445Z,2.35
2022-11-23T21:08:53.510Z,2.37
2022-11-23T21:11:49.550Z,2.38
2022-11-23T21:14:28.465Z,2.38
2022-11-23T21:17:05.191Z,2.38
2022-11-23T21:19:42.313Z,2.40
2022-11-23T21:22:19.454Z,2.44
2022-11-23T21:24:55.460Z,2.41
2022-11-23T21:27:31.628Z,2.41
2022-11-23T21:30:10.595Z,2.43
2022-11-23T21:32:50.318Z,2.43
2022-11-23T21:35:26.533Z,2.43
2022-11-23T21:38:02.603Z,2.42
2022-11-23T21:40:38.678Z,2.41
2022-11-23T21:43:14.759Z,2.40
2022-11-23T21:45:50.697Z,2.40
2022-11-23T21:48:26.504Z,2.43
2022-11-23T21:51:08.785Z,2.46
2022-11-23T21:53:44.886Z,2.48
2022-11-23T21:56:22.096Z,2.51
2022-11-23T21:58:59.070Z,2.53
2022-11-23T22:01:38.335Z,2.54
2022-11-23T22:04:17.098Z,2.57
2022-11-23T22:06:53.083Z,2.58
2022-11-23T22:09:31.485Z,2.59
2022-11-23T22:12:08.394Z,2.60
2022-11-23T22:14:44.639Z,2.61
2022-11-23T22:17:20.616Z,2.61
2022-11-23T22:19:56.489Z,2.62
2022-11-23T22:22:32.689Z,2.62
2022-11-23T22:25:10.764Z,2.61
2022-11-23T22:27:46.720Z,2.62
2022-11-23T22:30:23.793Z,2.64
2022-11-23T22:33:00.438Z,2.64
2022-11-23T22:35:38.115Z,2.63
2022-11-23T22:38:14.112Z,2.61
2022-11-23T22:40:52.093Z,2.59
2022-11-23T22:43:28.874Z,2.59
2022-11-23T22:46:11.324Z,2.59
2022-11-23T22:48:51.474Z,2.61
2022-11-23T22:51:29.861Z,2.60
2022-11-23T22:54:06.726Z,2.60
2022-11-23T22:56:42.735Z,2.60
2022-11-23T22:59:19.147Z,2.60
2022-11-23T23:01:55.073Z,2.59
2022-11-23T23:04:31.577Z,2.60
2022-11-23T23:07:07.872Z,2.64
2022-11-23T23:09:43.787Z,2.65
2022-11-23T23:12:19.701Z,2.66
2022-11-23T23:14:55.583Z,2.69
2022-11-23T23:17:31.445Z,2.69
2022-11-23T23:20:09.679Z,2.69
2022-11-23T23:22:45.594Z,2.69
2022-11-23T23:25:21.603Z,2.70
2022-11-23T23:27:57.933Z,2.69
2022-11-23T23:30:33.789Z,2.69
2022-11-23T23:33:09.756Z,2.69
2022-11-23T23:35:45.982Z,2.69
2022-11-23T23:38:21.898Z,2.68
2022-11-23T23:40:59.599Z,2.66
2022-11-23T23:43:36.265Z,2.64
2022-11-23T23:46:14.417Z,2.63
2022-11-23T23:48:50.734Z,2.63
2022-11-23T23:51:27.987Z,2.61
2022-11-23T23:54:04.881Z,2.61
2022-11-23T23:56:40.789Z,2.59
2022-11-23T23:59:16.993Z,2.58
